createdAt,value
2017-12-16T00:00:46.466Z,10.50
2017-12-16T00:03:14.333Z,17.60
2017-12-16T00:05:42.201Z,12.50
2017-12-16T00:08:10.068Z,9.77
2017-12-16T00:10:37.935Z,10.65
2017-12-16T00:13:05.803Z,13.38
2017-12-16T00:15:33.571Z,11.75
2017-12-16T00:18:01.434Z,13.00
2017-12-16T00:20:29.302Z,12.68
2017-12-16T00:22:57.169Z,12.52
2017-12-16T00:25:25.037Z,12.70
2017-12-16T00:27:52.903Z,13.27
2017-12-16T00:30:20.798Z,10.90
2017-12-16T00:32:48.639Z,13.20
2017-12-16T00:35:16.505Z,12.35
2017-12-16T00:37:44.373Z,14.82
2017-12-16T00:40:12.241Z,17.58
2017-12-16T00:42:40.108Z,16.77
2017-12-16T00:45:07.975Z,16.42
2017-12-16T00:47:35.843Z,12.30
2017-12-16T00:50:03.709Z,13.18
2017-12-16T00:52:31.577Z,14.75
2017-12-16T00:54:59.445Z,16.20
2017-12-16T00:57:27.312Z,15.48
2017-12-16T00:59:55.179Z,13.25
2017-12-16T01:02:23.046Z,15.77
2017-12-16T01:04:50.845Z,20.05
2017-12-16T01:07:19.499Z,12.90
2017-12-16T01:09:47.364Z,20.00
2017-12-16T01:12:15.232Z,13.93
2017-12-16T01:14:43.099Z,13.57
2017-12-16T01:17:10.967Z,13.45
2017-12-16T01:19:38.834Z,31.55
2017-12-16T01:22:06.703Z,11.30
2017-12-16T01:24:34.569Z,12.75
2017-12-16T01:27:02.436Z,11.55
2017-12-16T01:29:30.303Z,10.43
2017-12-16T01:31:58.171Z,13.35
2017-12-16T01:34:46.723Z,20.98
2017-12-16T01:37:26.366Z,11.50
2017-12-16T01:39:54.234Z,15.93
2017-12-16T01:42:22.100Z,13.38
2017-12-16T01:44:49.969Z,13.45
2017-12-16T01:47:17.835Z,11.35
2017-12-16T01:49:45.703Z,12.00
2017-12-16T01:52:13.571Z,15.90
2017-12-16T01:54:41.437Z,12.15
2017-12-16T01:57:09.305Z,13.20
2017-12-16T01:59:37.172Z,11.95
2017-12-16T02:02:05.040Z,9.48
2017-12-16T02:04:32.907Z,13.43
2017-12-16T02:07:00.775Z,12.48
2017-12-16T02:09:28.640Z,12.90
2017-12-16T02:11:57.327Z,11.10
2017-12-16T02:14:25.195Z,11.85
2017-12-16T02:16:53.165Z,15.55
2017-12-16T02:19:21.032Z,14.32
2017-12-16T02:21:48.900Z,13.43
2017-12-16T02:24:16.767Z,15.40
2017-12-16T02:26:44.635Z,12.70
2017-12-16T02:29:12.501Z,12.98
2017-12-16T02:31:40.371Z,15.05
2017-12-16T02:34:08.235Z,20.42
2017-12-16T02:36:36.210Z,15.30
2017-12-16T02:39:04.176Z,13.25
2017-12-16T02:41:32.044Z,18.60
2017-12-16T02:44:00.013Z,16.98
2017-12-16T02:46:27.880Z,21.60
2017-12-16T02:48:55.849Z,15.25
2017-12-16T02:51:23.717Z,16.58
2017-12-16T02:53:51.723Z,15.93
2017-12-16T02:56:20.374Z,14.35
2017-12-16T02:58:48.240Z,19.87
2017-12-16T03:01:16.108Z,15.65
2017-12-16T03:03:43.976Z,15.52
2017-12-16T03:06:11.842Z,14.90
2017-12-16T03:08:39.813Z,19.35
2017-12-16T03:11:07.679Z,13.70
2017-12-16T03:13:35.546Z,16.92
2017-12-16T03:16:03.414Z,14.63
2017-12-16T03:18:31.281Z,17.00
2017-12-16T03:20:59.186Z,16.40
2017-12-16T03:23:27.841Z,17.65
2017-12-16T03:25:55.805Z,15.20
2017-12-16T03:28:23.602Z,16.08
2017-12-16T03:30:51.540Z,13.98
2017-12-16T03:33:19.407Z,13.73
2017-12-16T03:35:47.274Z,15.75
2017-12-16T03:38:15.141Z,18.15
2017-12-16T03:40:43.008Z,16.35
2017-12-16T03:43:10.876Z,12.98
2017-12-16T03:45:38.674Z,16.87
2017-12-16T03:48:07.327Z,16.95
2017-12-16T03:50:35.196Z,15.00
2017-12-16T03:53:03.061Z,15.35
2017-12-16T03:55:30.930Z,21.02
2017-12-16T03:57:58.796Z,18.52
2017-12-16T04:00:26.656Z,20.30
2017-12-16T04:02:54.532Z,15.32
2017-12-16T04:05:22.399Z,17.15
2017-12-16T04:07:50.258Z,17.42
2017-12-16T04:10:19.050Z,15.32
2017-12-16T04:12:46.921Z,14.80
2017-12-16T04:15:14.789Z,22.30
2017-12-16T04:17:42.656Z,12.10
2017-12-16T04:20:10.524Z,13.75
2017-12-16T04:22:38.391Z,12.48
2017-12-16T04:25:06.258Z,14.05
2017-12-16T04:27:34.126Z,16.25
2017-12-16T04:30:01.993Z,21.83
2017-12-16T04:32:29.860Z,18.70
2017-12-16T04:34:57.659Z,19.17
2017-12-16T04:37:26.311Z,16.87
2017-12-16T04:39:54.179Z,17.52
2017-12-16T04:42:21.976Z,18.30
2017-12-16T04:44:49.914Z,16.92
2017-12-16T04:47:17.781Z,15.35
2017-12-16T04:49:45.648Z,17.73
2017-12-16T04:52:13.515Z,16.85
2017-12-16T04:54:41.383Z,17.52
2017-12-16T04:57:09.250Z,16.65
2017-12-16T04:59:37.118Z,13.45
2017-12-16T05:02:04.983Z,17.42
2017-12-16T05:04:32.874Z,19.75
2017-12-16T05:07:00.827Z,12.95
2017-12-16T05:09:28.689Z,14.20
2017-12-16T05:11:56.555Z,11.10
2017-12-16T05:14:24.424Z,18.42
2017-12-16T05:16:52.290Z,10.85
2017-12-16T05:19:20.161Z,13.62
2017-12-16T05:21:48.026Z,13.23
2017-12-16T05:24:15.892Z,13.65
2017-12-16T05:26:43.760Z,15.48
2017-12-16T05:29:11.627Z,15.93
2017-12-16T05:31:39.420Z,12.40
2017-12-16T05:34:07.363Z,10.40
2017-12-16T05:36:35.229Z,13.18
2017-12-16T05:39:03.200Z,17.80
2017-12-16T05:41:31.067Z,16.20
2017-12-16T05:43:58.934Z,14.68
2017-12-16T05:46:26.801Z,15.48
2017-12-16T05:48:54.668Z,17.08
2017-12-16T05:51:22.535Z,14.85
2017-12-16T05:53:50.402Z,18.05
2017-12-16T05:56:18.270Z,15.93
2017-12-16T05:58:46.071Z,16.15
2017-12-16T06:01:14.724Z,14.65
2017-12-16T06:03:42.588Z,15.63
2017-12-16T06:06:10.456Z,13.73
2017-12-16T06:08:38.254Z,16.27
2017-12-16T06:11:06.088Z,17.10
2017-12-16T06:13:33.955Z,21.80
2017-12-16T06:16:01.823Z,17.58
2017-12-16T06:18:29.690Z,13.62
2017-12-16T06:20:57.561Z,22.48
2017-12-16T06:23:25.425Z,17.92
2017-12-16T06:25:53.230Z,17.27
2017-12-16T06:28:21.877Z,16.08
2017-12-16T06:30:49.744Z,15.75
2017-12-16T06:33:17.615Z,13.30
2017-12-16T06:35:45.478Z,15.00
2017-12-16T06:38:14.937Z,22.20
2017-12-16T06:40:42.852Z,14.15
2017-12-16T06:43:11.026Z,16.23
2017-12-16T06:45:38.893Z,15.50
2017-12-16T06:48:06.760Z,13.62
2017-12-16T06:50:34.628Z,17.55
2017-12-16T06:53:02.495Z,18.10
2017-12-16T06:55:30.464Z,16.55
2017-12-16T06:57:58.331Z,16.37
2017-12-16T07:00:26.198Z,18.05
2017-12-16T07:02:54.066Z,19.48
2017-12-16T07:05:21.934Z,19.15
2017-12-16T07:07:50.620Z,18.60
2017-12-16T07:10:18.487Z,21.10
2017-12-16T07:12:46.354Z,24.30
2017-12-16T07:15:14.085Z,21.17
2017-12-16T07:17:41.846Z,17.73
2017-12-16T07:20:09.752Z,24.17
2017-12-16T07:22:37.620Z,21.60
2017-12-16T07:25:05.488Z,24.48
2017-12-16T07:27:33.355Z,20.08
2017-12-16T07:30:01.228Z,21.33
2017-12-16T07:32:29.091Z,18.52
2017-12-16T07:34:56.958Z,19.25
2017-12-16T07:37:24.823Z,17.42
2017-12-16T07:39:52.622Z,18.58
2017-12-16T07:42:21.275Z,16.02
2017-12-16T07:44:49.073Z,17.77
2017-12-16T07:47:17.726Z,18.62
2017-12-16T07:49:45.539Z,17.85
2017-12-16T07:52:14.177Z,17.85
2017-12-16T07:54:45.290Z,19.98
2017-12-16T07:57:13.198Z,21.37
2017-12-16T07:59:41.056Z,19.92
2017-12-16T08:02:08.924Z,21.02
2017-12-16T08:04:36.790Z,24.23
2017-12-16T08:07:04.658Z,20.27
2017-12-16T08:09:33.447Z,20.37
2017-12-16T08:12:01.314Z,19.87
2017-12-16T08:14:29.182Z,22.83
2017-12-16T08:16:57.049Z,19.87
2017-12-16T08:19:24.919Z,17.20
2017-12-16T08:21:53.499Z,16.52
2017-12-16T08:24:21.368Z,18.60
2017-12-16T08:26:49.166Z,19.73
2017-12-16T08:29:16.999Z,22.05
2017-12-16T08:31:44.869Z,19.67
2017-12-16T08:34:12.742Z,23.27
2017-12-16T08:36:40.602Z,19.85
2017-12-16T08:39:08.469Z,24.35
2017-12-16T08:41:36.336Z,24.23
2017-12-16T08:44:05.024Z,23.92
2017-12-16T08:46:32.893Z,27.95
2017-12-16T08:49:00.757Z,25.90
2017-12-16T08:51:28.625Z,21.12
2017-12-16T08:53:56.492Z,24.52
2017-12-16T08:56:24.285Z,23.75
2017-12-16T08:58:52.943Z,25.20
2017-12-16T09:01:20.810Z,27.70
2017-12-16T09:03:48.679Z,23.42
2017-12-16T09:06:16.545Z,29.35
2017-12-16T09:08:44.412Z,26.15
2017-12-16T09:11:12.280Z,29.63
2017-12-16T09:13:40.148Z,25.77
2017-12-16T09:16:08.015Z,28.83
2017-12-16T09:18:35.882Z,27.65
2017-12-16T09:21:03.749Z,40.42
2017-12-16T09:23:31.617Z,31.35
2017-12-16T09:25:59.484Z,31.92
2017-12-16T09:28:27.352Z,34.03
2017-12-16T09:30:55.219Z,34.42
2017-12-16T09:33:23.086Z,26.60
2017-12-16T09:35:55.074Z,30.85
2017-12-16T09:38:30.279Z,28.27
2017-12-16T09:41:01.594Z,32.25
2017-12-16T09:43:38.222Z,30.45
2017-12-16T09:46:11.235Z,30.67
2017-12-16T09:48:41.687Z,31.02
2017-12-16T09:51:30.777Z,30.37
2017-12-16T09:54:01.076Z,32.55
2017-12-16T09:56:31.506Z,27.80
2017-12-16T09:58:59.270Z,31.67
2017-12-16T10:01:27.176Z,35.28
2017-12-16T10:03:58.854Z,30.52
2017-12-16T10:06:31.587Z,31.50
2017-12-16T10:09:01.398Z,31.08
2017-12-16T10:11:30.879Z,34.03
2017-12-16T10:14:00.501Z,30.98
2017-12-16T10:16:29.227Z,31.60
2017-12-16T10:18:57.095Z,30.77
2017-12-16T10:21:24.963Z,28.55
2017-12-16T10:23:52.756Z,36.08
2017-12-16T10:26:20.601Z,30.33
2017-12-16T10:28:48.462Z,30.73
2017-12-16T10:31:16.329Z,25.48
2017-12-16T10:33:44.200Z,29.60
2017-12-16T10:36:12.119Z,27.73
2017-12-16T10:38:40.742Z,28.00
2017-12-16T10:41:08.618Z,34.80
2017-12-16T10:43:36.486Z,31.65
2017-12-16T10:46:04.353Z,27.60
2017-12-16T10:48:32.222Z,27.33
2017-12-16T10:51:00.087Z,33.38
2017-12-16T10:53:27.955Z,25.90
2017-12-16T10:55:55.822Z,22.65
2017-12-16T10:58:23.688Z,28.38
2017-12-16T11:00:55.450Z,24.50
2017-12-16T11:03:23.319Z,27.80
2017-12-16T11:05:51.183Z,28.20
2017-12-16T11:08:19.050Z,26.33
2017-12-16T11:10:46.918Z,24.63
2017-12-16T11:13:14.784Z,26.40
2017-12-16T11:15:42.655Z,27.20
2017-12-16T11:18:10.519Z,24.48
2017-12-16T11:20:38.390Z,22.50
2017-12-16T11:23:06.256Z,25.40
2017-12-16T11:25:34.121Z,20.75
2017-12-16T11:28:01.988Z,22.40
2017-12-16T11:30:29.859Z,26.98
2017-12-16T11:32:57.723Z,26.95
2017-12-16T11:35:25.591Z,23.33
2017-12-16T11:37:53.458Z,22.70
2017-12-16T11:40:21.326Z,26.60
2017-12-16T11:42:49.121Z,24.27
2017-12-16T11:45:16.957Z,25.10
2017-12-16T11:47:44.824Z,22.17
2017-12-16T11:50:12.691Z,21.37
2017-12-16T11:52:40.559Z,21.87
2017-12-16T11:55:08.426Z,21.65
2017-12-16T11:57:36.294Z,24.42
2017-12-16T12:00:04.160Z,21.02
2017-12-16T12:02:32.031Z,19.95
2017-12-16T12:05:03.251Z,24.05
2017-12-16T12:07:31.141Z,21.62
2017-12-16T12:09:59.112Z,20.37
2017-12-16T12:12:29.155Z,23.35
2017-12-16T12:14:59.230Z,20.80
2017-12-16T12:17:28.595Z,21.70
2017-12-16T12:20:23.793Z,24.33
2017-12-16T12:22:54.036Z,21.98
2017-12-16T12:25:24.560Z,16.75
2017-12-16T12:27:53.197Z,16.17
2017-12-16T12:30:21.064Z,16.10
2017-12-16T12:32:48.932Z,15.82
2017-12-16T12:35:16.799Z,19.40
2017-12-16T12:37:44.667Z,15.57
2017-12-16T12:40:12.534Z,18.05
2017-12-16T12:42:40.401Z,14.40
2017-12-16T12:45:08.269Z,12.65
2017-12-16T12:47:36.137Z,14.35
2017-12-16T12:50:04.004Z,19.42
2017-12-16T12:52:31.871Z,17.73
2017-12-16T12:54:59.739Z,12.52
2017-12-16T12:57:27.606Z,19.60
2017-12-16T12:59:55.472Z,13.27
2017-12-16T13:02:23.341Z,13.32
2017-12-16T13:05:14.866Z,13.55
2017-12-16T13:07:42.674Z,11.60
2017-12-16T13:10:11.313Z,13.70
2017-12-16T13:12:39.184Z,12.70
2017-12-16T13:15:07.054Z,10.23
2017-12-16T13:17:34.916Z,21.30
2017-12-16T13:20:02.783Z,16.75
2017-12-16T13:22:31.469Z,12.10
2017-12-16T13:24:59.336Z,14.05
2017-12-16T13:27:27.204Z,13.52
2017-12-16T13:29:55.075Z,13.35
2017-12-16T13:32:22.939Z,12.88
2017-12-16T13:34:50.806Z,12.40
2017-12-16T13:37:18.673Z,9.68
2017-12-16T13:39:46.540Z,14.43
2017-12-16T13:42:14.408Z,15.88
2017-12-16T13:44:42.278Z,11.43
2017-12-16T13:47:10.142Z,11.30
2017-12-16T13:49:38.011Z,15.75
2017-12-16T13:52:05.877Z,15.20
2017-12-16T13:54:33.750Z,19.25
2017-12-16T13:57:01.611Z,15.10
2017-12-16T13:59:29.479Z,12.48
2017-12-16T14:01:57.244Z,18.60
2017-12-16T14:04:25.111Z,14.30
2017-12-16T14:06:52.979Z,15.57
2017-12-16T14:09:20.846Z,15.60
2017-12-16T14:11:48.713Z,15.02
2017-12-16T14:14:16.581Z,16.67
2017-12-16T14:16:44.448Z,16.95
2017-12-16T14:19:12.314Z,16.02
2017-12-16T14:21:40.182Z,16.30
2017-12-16T14:24:08.050Z,13.77
2017-12-16T14:26:35.927Z,14.48
2017-12-16T14:29:03.783Z,64.12
2017-12-16T14:31:31.652Z,15.68
2017-12-16T14:34:00.161Z,23.83
2017-12-16T14:36:28.820Z,14.77
2017-12-16T14:38:56.892Z,14.45
2017-12-16T14:41:24.759Z,10.50
2017-12-16T14:43:53.104Z,9.23
2017-12-16T14:46:23.224Z,8.55
2017-12-16T14:48:51.228Z,10.18
2017-12-16T14:51:19.095Z,9.95
2017-12-16T14:53:46.964Z,7.97
2017-12-16T14:56:14.830Z,13.88
2017-12-16T14:58:42.800Z,12.05
2017-12-16T15:01:10.667Z,9.23
2017-12-16T15:03:38.534Z,11.02
2017-12-16T15:06:10.726Z,9.68
2017-12-16T15:08:38.718Z,9.02
2017-12-16T15:11:07.460Z,16.27
2017-12-16T15:13:35.331Z,10.05
2017-12-16T15:16:03.197Z,9.93
2017-12-16T15:18:31.064Z,10.55
2017-12-16T15:20:58.932Z,9.60
2017-12-16T15:23:26.901Z,11.20
2017-12-16T15:25:54.767Z,14.38
2017-12-16T15:28:22.636Z,12.90
2017-12-16T15:30:50.502Z,8.18
2017-12-16T15:33:20.065Z,9.70
2017-12-16T15:35:47.876Z,4.90
2017-12-16T15:38:15.744Z,6.45
2017-12-16T15:40:43.612Z,8.07
2017-12-16T15:43:11.480Z,7.68
2017-12-16T15:45:39.344Z,9.65
2017-12-16T15:48:07.212Z,5.12
2017-12-16T15:50:35.080Z,4.62
2017-12-16T15:53:02.953Z,4.90
2017-12-16T15:55:30.814Z,5.22
2017-12-16T15:57:58.681Z,7.25
2017-12-16T16:00:26.551Z,4.25
2017-12-16T16:02:54.418Z,10.27
2017-12-16T16:05:22.292Z,4.62
2017-12-16T16:07:50.155Z,5.85
2017-12-16T16:10:18.018Z,3.17
2017-12-16T16:12:45.885Z,5.60
2017-12-16T16:15:14.060Z,3.97
2017-12-16T16:17:41.933Z,3.65
2017-12-16T16:20:09.795Z,5.55
2017-12-16T16:22:37.537Z,7.05
2017-12-16T16:25:05.273Z,4.28
2017-12-16T16:27:33.806Z,5.20
2017-12-16T16:30:01.777Z,6.90
2017-12-16T16:32:29.644Z,5.78
2017-12-16T16:34:57.510Z,6.15
2017-12-16T16:37:25.270Z,6.62
2017-12-16T16:39:53.002Z,8.80
2017-12-16T16:42:20.734Z,7.78
2017-12-16T16:44:48.570Z,5.37
2017-12-16T16:47:16.439Z,5.47
2017-12-16T16:49:44.206Z,3.67
2017-12-16T16:52:11.922Z,7.47
2017-12-16T16:54:39.834Z,7.15
2017-12-16T16:57:07.702Z,8.82
2017-12-16T16:59:35.421Z,5.62
2017-12-16T17:02:03.233Z,5.68
2017-12-16T17:04:31.025Z,4.65
2017-12-16T17:06:58.864Z,8.05
2017-12-16T17:09:26.833Z,6.87
2017-12-16T17:11:54.701Z,4.12
2017-12-16T17:14:22.427Z,5.80
2017-12-16T17:16:50.182Z,12.43
2017-12-16T17:19:18.707Z,7.00
2017-12-16T17:21:46.437Z,7.82
2017-12-16T17:24:14.161Z,7.53
2017-12-16T17:26:41.879Z,7.45
2017-12-16T17:29:09.603Z,8.77
2017-12-16T17:31:38.104Z,9.73
2017-12-16T17:34:06.581Z,8.30
2017-12-16T17:36:35.106Z,5.75
2017-12-16T17:39:02.879Z,6.18
2017-12-16T17:41:30.615Z,9.55
2017-12-16T17:43:58.412Z,8.10
2017-12-16T17:46:26.276Z,11.65
2017-12-16T17:48:53.981Z,8.40
2017-12-16T17:51:21.910Z,8.20
2017-12-16T17:53:49.629Z,13.57
2017-12-16T17:56:17.334Z,9.80
2017-12-16T17:58:46.221Z,15.30
2017-12-16T18:01:14.914Z,5.80
2017-12-16T18:03:42.782Z,13.05
2017-12-16T18:06:10.548Z,6.68
2017-12-16T18:08:38.283Z,7.85
2017-12-16T18:11:06.030Z,10.13
2017-12-16T18:13:33.768Z,8.20
2017-12-16T18:16:01.491Z,13.23
2017-12-16T18:18:29.269Z,8.07
2017-12-16T18:20:57.136Z,10.73
2017-12-16T18:23:25.109Z,10.05
2017-12-16T18:25:52.834Z,10.02
2017-12-16T18:28:20.669Z,10.73
2017-12-16T18:30:48.381Z,10.38
2017-12-16T18:33:16.167Z,9.95
2017-12-16T18:35:44.238Z,8.77
2017-12-16T18:38:12.006Z,13.45
2017-12-16T18:40:39.874Z,11.57
2017-12-16T18:43:07.610Z,12.35
2017-12-16T18:45:35.349Z,17.67
2017-12-16T18:48:03.866Z,8.57
2017-12-16T18:50:31.650Z,11.50
2017-12-16T18:52:59.385Z,16.85
2017-12-16T18:55:27.121Z,13.82
2017-12-16T18:57:55.610Z,9.32
2017-12-16T19:00:23.526Z,12.50
2017-12-16T19:02:51.262Z,12.52
2017-12-16T19:05:18.985Z,14.57
2017-12-16T19:07:46.684Z,9.80
2017-12-16T19:10:14.419Z,7.40
2017-12-16T19:12:42.919Z,10.60
2017-12-16T19:15:10.638Z,9.85
2017-12-16T19:17:38.346Z,9.82
2017-12-16T19:20:06.122Z,13.32
2017-12-16T19:22:33.884Z,10.32
2017-12-16T19:25:01.632Z,11.57
2017-12-16T19:27:30.141Z,9.85
2017-12-16T19:29:59.010Z,13.27
2017-12-16T19:32:27.484Z,10.63
2017-12-16T19:34:55.990Z,9.13
2017-12-16T19:37:23.788Z,18.15
2017-12-16T19:39:51.526Z,8.60
2017-12-16T19:42:19.267Z,11.38
2017-12-16T19:44:47.751Z,11.65
2017-12-16T19:47:16.355Z,11.12
2017-12-16T19:49:44.082Z,11.63
2017-12-16T19:52:12.593Z,8.93
2017-12-16T19:54:40.498Z,9.70
2017-12-16T19:57:08.378Z,9.45
2017-12-16T19:59:36.094Z,10.00
2017-12-16T20:02:03.835Z,10.77
2017-12-16T20:04:32.313Z,12.25
2017-12-16T20:07:00.962Z,9.48
2017-12-16T20:09:28.676Z,11.82
2017-12-16T20:11:56.490Z,13.18
2017-12-16T20:14:24.358Z,10.07
2017-12-16T20:16:52.099Z,12.32
2017-12-16T20:19:19.811Z,10.50
2017-12-16T20:21:47.513Z,8.10
2017-12-16T20:24:15.282Z,11.02
2017-12-16T20:26:43.021Z,11.77
2017-12-16T20:29:11.570Z,7.93
2017-12-16T20:31:39.406Z,8.82
2017-12-16T20:34:07.130Z,10.13
2017-12-16T20:36:35.703Z,8.68
2017-12-16T20:39:04.743Z,9.07
2017-12-16T20:41:33.271Z,7.15
2017-12-16T20:44:00.998Z,12.55
2017-12-16T20:46:28.736Z,9.18
2017-12-16T20:48:56.479Z,8.63
2017-12-16T20:51:24.422Z,10.90
2017-12-16T20:53:52.139Z,11.10
2017-12-16T20:56:19.911Z,7.20
2017-12-16T20:58:47.646Z,6.95
2017-12-16T21:01:16.142Z,8.50
2017-12-16T21:03:44.661Z,11.70
2017-12-16T21:06:12.369Z,8.98
2017-12-16T21:08:40.958Z,7.25
2017-12-16T21:11:08.686Z,7.65
2017-12-16T21:13:36.409Z,8.82
2017-12-16T21:16:04.129Z,7.07
2017-12-16T21:18:31.837Z,7.78
2017-12-16T21:20:59.618Z,6.90
2017-12-16T21:23:27.334Z,9.48
2017-12-16T21:25:55.071Z,6.50
2017-12-16T21:28:22.781Z,12.10
2017-12-16T21:30:51.420Z,8.43
2017-12-16T21:33:19.287Z,10.45
2017-12-16T21:35:47.011Z,9.63
2017-12-16T21:38:14.722Z,5.85
2017-12-16T21:40:42.442Z,10.75
2017-12-16T21:43:10.244Z,7.93
2017-12-16T21:45:37.946Z,8.57
2017-12-16T21:48:06.491Z,8.70
2017-12-16T21:50:34.194Z,5.70
2017-12-16T21:53:02.694Z,9.60
2017-12-16T21:55:30.406Z,7.40
2017-12-16T21:57:58.874Z,6.22
2017-12-16T22:00:26.578Z,5.72
2017-12-16T22:02:55.057Z,6.18
2017-12-16T22:05:22.771Z,10.80
2017-12-16T22:07:50.526Z,20.90
2017-12-16T22:10:18.320Z,9.43
2017-12-16T22:12:46.187Z,12.30
2017-12-16T22:15:14.056Z,12.32
2017-12-16T22:17:41.760Z,11.00
2017-12-16T22:20:10.237Z,10.80
2017-12-16T22:22:38.698Z,11.27
2017-12-16T22:25:06.548Z,12.07
2017-12-16T22:27:34.416Z,7.90
2017-12-16T22:30:02.294Z,13.05
2017-12-16T22:32:29.987Z,13.75
2017-12-16T22:34:58.635Z,10.75
2017-12-16T22:37:26.366Z,8.40
2017-12-16T22:39:54.145Z,10.52
2017-12-16T22:42:22.028Z,7.55
2017-12-16T22:44:49.774Z,6.57
2017-12-16T22:47:17.512Z,9.85
2017-12-16T22:49:45.247Z,5.60
2017-12-16T22:52:12.973Z,7.57
2017-12-16T22:54:40.752Z,5.57
2017-12-16T22:57:08.620Z,10.02
2017-12-16T22:59:36.487Z,5.55
2017-12-16T23:02:04.354Z,8.45
2017-12-16T23:04:32.221Z,6.82
2017-12-16T23:06:59.995Z,5.37
2017-12-16T23:09:27.769Z,9.05
2017-12-16T23:11:55.551Z,11.40
2017-12-16T23:14:24.086Z,10.10
2017-12-16T23:16:51.968Z,7.47
2017-12-16T23:19:19.735Z,6.57
2017-12-16T23:21:47.599Z,10.50
2017-12-16T23:24:15.466Z,13.18
2017-12-16T23:26:43.334Z,12.10
2017-12-16T23:29:11.202Z,8.73
2017-12-16T23:31:39.068Z,7.53
2017-12-16T23:34:06.847Z,11.10
2017-12-16T23:36:34.606Z,8.55
2017-12-16T23:39:02.406Z,6.72
2017-12-16T23:41:30.946Z,9.57
2017-12-16T23:43:58.726Z,14.77
2017-12-16T23:46:26.493Z,12.10
2017-12-16T23:48:54.261Z,5.35
2017-12-16T23:51:22.034Z,9.40
2017-12-16T23:53:49.810Z,8.68
2017-12-16T23:56:18.331Z,7.05
2017-12-16T23:58:46.224Z,11.73
